Time;durP1;ratioP1;P1;durP2;ratioP2;P2;SDS_P1;SDS_P2;PMS_P1;PMS_P2;Temp;Humidity;BMP_temperature;BMP_pressure;BME280_temperature;BME280_humidity;BME280_pressure;Samples;Min_cycle;Max_cycle;Signal;HPM_P1;HPM_P2
2022/01/12 00:01:03;;;;;;;;;;;;;;;22.08;18.02;98437.94;5022383;28;1180;-77
2022/01/12 00:03:28;;;;;;;;;;;;;;;22.31;18.06;98442.69;5002406;28;1094;-77
2022/01/12 00:05:53;;;;;;;;;;;;;;;22.27;17.78;98446.84;5021489;28;1068;-77
2022/01/12 00:08:19;;;;;;;;;;;;;;;22.23;17.98;98449.78;5002902;28;960;-77
2022/01/12 00:10:44;;;;;;;;;;;;;;;22.25;18.03;98464.31;5021281;28;951;-77
2022/01/12 00:13:10;;;;;;;;;;;;;;;22.19;17.89;98454.72;5019291;28;1002;-77
2022/01/12 00:15:35;;;;;;;;;;;;;;;22.28;17.86;98459.81;5020585;28;961;-77
2022/01/12 00:18:01;;;;;;;;;;;;;;;22.42;17.55;98458.66;5019421;28;1988;-77
2022/01/12 00:20:26;;;;;;;;;;;;;;;22.47;17.69;98458.16;5003973;28;1003;-77
2022/01/12 00:22:53;;;;;;;;;;;;;;;22.59;17.41;98468.81;5004180;28;1261;-77
2022/01/12 00:33:14;;;;;;;;;;;;;;;22.35;17.85;98483.13;5059553;28;930;-77
2022/01/12 00:35:43;;;;;;;;;;;;;;;22.22;17.82;98482.19;5060861;28;959;-77
2022/01/12 00:38:08;;;;;;;;;;;;;;;22.27;17.93;98478.03;5059927;28;1898;-77
2022/01/12 00:40:41;;;;;;;;;;;;;;;22.30;17.73;98469.47;5078986;28;1409;-77
2022/01/12 00:43:06;;;;;;;;;;;;;;;22.24;17.99;98476.88;5054489;28;1535;-77
2022/01/12 00:45:32;;;;;;;;;;;;;;;22.56;17.55;98486.72;5039210;28;1063;-77
2022/01/12 00:47:58;;;;;;;;;;;;;;;21.98;18.13;98506.16;5054700;28;1010;-77
2022/01/12 00:50:23;;;;;;;;;;;;;;;22.34;17.57;98487.19;5038417;28;973;-77
2022/01/12 00:52:48;;;;;;;;;;;;;;;22.20;17.87;98476.16;5039032;28;1158;-77
2022/01/12 00:55:14;;;;;;;;;;;;;;;22.35;17.51;98511.47;5037804;28;950;-76
2022/01/12 00:57:40;;;;;;;;;;;;;;;22.60;17.40;98498.78;5039303;28;1917;-77
2022/01/12 01:00:07;;;;;;;;;;;;;;;23.05;16.91;98510.31;5037412;28;974;-77
2022/01/12 01:02:32;;;;;;;;;;;;;;;22.43;17.29;98514.94;5039340;28;1870;-77
2022/01/12 01:04:59;;;;;;;;;;;;;;;22.30;17.36;98511.19;5037345;28;1098;-77
2022/01/12 01:07:24;;;;;;;;;;;;;;;22.00;17.73;98518.63;5056011;28;1272;-77
2022/01/12 01:10:01;;;;;;;;;;;;;;;22.27;17.41;98515.69;5037417;28;1075;-77
2022/01/12 01:12:27;;;;;;;;;;;;;;;22.28;17.66;98517.31;5039370;28;1056;-77
2022/01/12 01:15:04;;;;;;;;;;;;;;;22.35;17.55;98522.81;5055226;28;987;-77
2022/01/12 01:25:42;;;;;;;;;;;;;;;22.52;17.14;98526.50;5061526;28;917;-77
2022/01/12 01:28:10;;;;;;;;;;;;;;;22.09;17.55;98532.25;5075176;28;1356;-77
2022/01/12 01:30:37;;;;;;;;;;;;;;;21.79;18.24;98519.88;5059304;28;1642;-78
2022/01/12 01:33:07;;;;;;;;;;;;;;;22.27;17.48;98515.69;5058851;28;1140;-77
2022/01/12 01:35:32;;;;;;;;;;;;;;;22.53;17.32;98515.94;5059004;28;1326;-77
2022/01/12 01:37:59;;;;;;;;;;;;;;;22.55;17.20;98519.94;5091746;28;2047;-77
2022/01/12 01:40:26;;;;;;;;;;;;;;;22.32;17.72;98518.00;5058931;28;1411;-76
2022/01/12 01:53:37;;;;;;;;;;;;;;;22.95;16.71;98527.56;5071559;28;1216;-77
2022/01/12 01:56:05;;;;;;;;;;;;;;;22.35;17.56;98531.31;5060517;28;1234;-77
2022/01/12 01:58:30;;;;;;;;;;;;;;;21.45;18.22;98556.09;5057293;28;1914;-77
2022/01/12 02:00:56;;;;;;;;;;;;;;;21.59;18.43;98555.84;5059036;28;1299;-77
2022/01/12 02:03:29;;;;;;;;;;;;;;;21.98;18.01;98560.00;5039243;28;1142;-77
2022/01/12 02:05:56;;;;;;;;;;;;;;;22.26;17.88;98565.13;5026480;28;1387;-77
2022/01/12 02:08:22;;;;;;;;;;;;;;;21.53;18.31;98557.56;5039114;28;1031;-77
2022/01/12 02:11:11;;;;;;;;;;;;;;;22.66;17.12;98556.59;5039716;28;1012;-77
2022/01/12 02:13:36;;;;;;;;;;;;;;;23.26;16.49;98545.91;5019117;28;1273;-78
2022/01/12 02:16:02;;;;;;;;;;;;;;;22.57;17.12;98557.16;5038756;28;1087;-77
2022/01/12 02:40:26;;;;;;;;;;;;;;;22.67;17.15;98558.19;5023246;28;1240;-74
2022/01/12 02:51:30;;;;;;;;;;;;;;;22.20;17.56;98583.88;5003006;28;959;-75
2022/01/12 02:53:55;;;;;;;;;;;;;;;21.45;18.61;98585.22;4999528;28;1072;-75
2022/01/12 02:56:24;;;;;;;;;;;;;;;22.61;17.11;98582.63;4987327;28;1985;-75
2022/01/12 02:58:50;;;;;;;;;;;;;;;22.85;17.05;98584.13;4983554;28;1000;-74
2022/01/12 03:03:57;;;;;;;;;;;;;;;21.61;18.15;98580.91;4968873;28;1297;-75
2022/01/12 03:06:27;;;;;;;;;;;;;;;22.30;17.75;98599.88;4980743;28;990;-75
2022/01/12 03:08:52;;;;;;;;;;;;;;;22.41;17.56;98608.16;4979618;28;1239;-75
2022/01/12 03:11:19;;;;;;;;;;;;;;;21.90;18.01;98603.84;4966977;28;1180;-75
2022/01/12 03:13:48;;;;;;;;;;;;;;;21.56;18.21;98591.50;4963537;28;1261;-75
2022/01/12 03:16:17;;;;;;;;;;;;;;;22.07;17.79;98594.22;4983161;28;1190;-75
2022/01/12 03:18:47;;;;;;;;;;;;;;;21.71;18.06;98596.91;4959489;28;1448;-75
2022/01/12 03:21:12;;;;;;;;;;;;;;;21.89;18.07;98591.72;5010883;28;910;-75
2022/01/12 03:23:38;;;;;;;;;;;;;;;21.80;18.20;98600.78;4985568;28;1123;-75
2022/01/12 03:26:04;;;;;;;;;;;;;;;21.61;18.13;98610.03;5005880;28;1112;-75
2022/01/12 03:28:31;;;;;;;;;;;;;;;21.63;18.33;98601.91;5002641;28;979;-75
2022/01/12 03:31:20;;;;;;;;;;;;;;;21.57;18.10;98603.63;4989146;28;1277;-74
2022/01/12 04:09:06;;;;;;;;;;;;;;;22.07;17.64;98667.88;5101529;28;1335;-77
2022/01/12 04:11:34;;;;;;;;;;;;;;;21.53;18.13;98665.16;5079468;28;989;-77
2022/01/12 04:14:00;;;;;;;;;;;;;;;21.74;18.23;98678.19;5060645;28;1089;-77
2022/01/12 04:16:26;;;;;;;;;;;;;;;22.03;17.86;98670.81;5079721;28;1918;-77
2022/01/12 04:18:51;;;;;;;;;;;;;;;21.60;18.34;98659.38;5043404;28;1603;-77
2022/01/12 04:21:24;;;;;;;;;;;;;;;21.63;17.82;98654.91;5063068;28;1432;-77
2022/01/12 04:23:49;;;;;;;;;;;;;;;21.68;17.83;98660.09;5043118;28;1314;-77
2022/01/12 04:26:15;;;;;;;;;;;;;;;21.95;17.72;98662.84;5052291;28;1098;-77
2022/01/12 04:28:44;;;;;;;;;;;;;;;21.70;17.79;98675.41;5031031;28;1312;-77
2022/01/12 04:31:09;;;;;;;;;;;;;;;22.08;17.56;98678.03;5022622;28;1230;-77
2022/01/12 04:33:36;;;;;;;;;;;;;;;21.92;17.80;98683.56;5006826;28;1152;-77
2022/01/12 04:36:01;;;;;;;;;;;;;;;21.30;18.25;98688.59;5009682;28;1262;-75
2022/01/12 04:38:29;;;;;;;;;;;;;;;21.42;18.32;98693.66;4960596;28;1976;-76
2022/01/12 04:40:55;;;;;;;;;;;;;;;21.92;17.94;98692.06;4875392;29;1096;-76
2022/01/12 04:43:21;;;;;;;;;;;;;;;21.26;18.63;98708.41;4948841;29;990;-76
2022/01/12 04:50:45;;;;;;;;;;;;;;;21.30;18.38;98719.72;4977438;28;1211;-76
2022/01/12 04:53:10;;;;;;;;;;;;;;;21.43;18.56;98719.94;4951176;28;1147;-76
2022/01/12 04:55:36;;;;;;;;;;;;;;;21.84;18.10;98725.38;4938289;29;1060;-76
2022/01/12 04:58:02;;;;;;;;;;;;;;;21.49;18.28;98715.38;4952174;29;1899;-76
2022/01/12 05:00:30;;;;;;;;;;;;;;;21.01;18.81;98724.91;4962885;28;1246;-76
2022/01/12 05:13:38;;;;;;;;;;;;;;;21.62;18.29;98736.22;5015841;28;1233;-76
2022/01/12 05:16:04;;;;;;;;;;;;;;;21.63;18.39;98732.16;4978812;28;1151;-76
2022/01/12 05:18:31;;;;;;;;;;;;;;;21.44;18.45;98730.03;4976771;28;1914;-76
2022/01/12 05:20:56;;;;;;;;;;;;;;;21.41;18.65;98725.22;4963390;28;987;-76
2022/01/12 05:23:22;;;;;;;;;;;;;;;21.72;18.35;98731.63;4977313;28;1108;-76
2022/01/12 05:25:48;;;;;;;;;;;;;;;22.01;18.19;98737.63;4962954;28;1258;-76
2022/01/12 05:28:13;;;;;;;;;;;;;;;21.49;18.27;98732.38;4941430;28;1344;-76
2022/01/12 05:30:39;;;;;;;;;;;;;;;21.68;18.21;98731.69;4956733;28;976;-76
2022/01/12 05:33:05;;;;;;;;;;;;;;;21.81;18.17;98732.72;4958255;29;1112;-77
2022/01/12 05:35:34;;;;;;;;;;;;;;;21.16;18.90;98729.16;4908612;29;1247;-76
2022/01/12 05:38:08;;;;;;;;;;;;;;;21.48;18.51;98730.78;4938864;29;1891;-77
2022/01/12 05:40:34;;;;;;;;;;;;;;;21.39;18.65;98744.66;4892547;29;1186;-76
2022/01/12 05:43:02;;;;;;;;;;;;;;;21.15;18.80;98750.22;4898119;29;1188;-76
2022/01/12 05:45:28;;;;;;;;;;;;;;;21.40;18.50;98746.25;4957850;28;1403;-76
2022/01/12 05:50:21;;;;;;;;;;;;;;;21.53;18.29;98756.59;4977980;28;1263;-76
2022/01/12 05:52:47;;;;;;;;;;;;;;;21.32;18.75;98757.69;4958488;28;1350;-76
2022/01/12 05:55:15;;;;;;;;;;;;;;;21.51;18.54;98761.09;4958386;28;968;-75
2022/01/12 05:57:42;;;;;;;;;;;;;;;21.90;18.00;98754.00;4958751;28;1899;-76
2022/01/12 06:00:09;;;;;;;;;;;;;;;21.66;18.24;98759.66;4925278;29;1405;-76
2022/01/12 06:02:39;;;;;;;;;;;;;;;21.36;18.59;98762.50;4940257;29;1066;-76
2022/01/12 06:05:07;;;;;;;;;;;;;;;21.54;18.21;98757.38;4939965;29;1307;-76
2022/01/12 06:07:33;;;;;;;;;;;;;;;21.68;18.37;98762.84;4996602;28;1476;-76
2022/01/12 06:09:58;;;;;;;;;;;;;;;21.36;18.74;98773.81;4962648;28;1079;-76
2022/01/12 06:12:24;;;;;;;;;;;;;;;21.62;18.53;98770.22;4942864;29;1339;-76
2022/01/12 06:14:49;;;;;;;;;;;;;;;21.84;18.04;98782.03;4919628;29;1261;-76
2022/01/12 06:17:15;;;;;;;;;;;;;;;21.34;18.54;98782.72;4871996;29;1911;-76
2022/01/12 06:19:41;;;;;;;;;;;;;;;21.03;18.82;98785.50;4848316;29;1318;-76
2022/01/12 06:22:23;;;;;;;;;;;;;;;21.89;18.16;98795.72;4848119;29;1347;-75
2022/01/12 06:24:56;;;;;;;;;;;;;;;21.42;18.40;98800.44;4902590;29;1345;-76
2022/01/12 06:27:23;;;;;;;;;;;;;;;21.09;18.80;98800.00;4924946;29;1132;-76
2022/01/12 06:32:37;;;;;;;;;;;;;;;21.83;18.09;98806.72;4943254;29;1014;-76
2022/01/12 06:35:03;;;;;;;;;;;;;;;21.72;18.31;98817.41;4942506;29;970;-76
2022/01/12 06:37:28;;;;;;;;;;;;;;;21.56;18.27;98805.91;4943839;29;1964;-76
2022/01/12 06:39:54;;;;;;;;;;;;;;;21.71;18.33;98801.66;4937748;29;1296;-76
2022/01/12 06:42:19;;;;;;;;;;;;;;;21.25;18.43;98803.03;4922726;29;1292;-76
2022/01/12 06:44:47;;;;;;;;;;;;;;;21.14;18.67;98813.69;4935481;29;1548;-76
2022/01/12 06:47:13;;;;;;;;;;;;;;;21.42;18.46;98812.56;4948367;28;1304;-76
2022/01/12 06:49:38;;;;;;;;;;;;;;;21.38;18.46;98811.78;4961408;29;1061;-76
2022/01/12 06:52:04;;;;;;;;;;;;;;;21.97;17.90;98802.88;4963227;29;1193;-76
2022/01/12 06:54:30;;;;;;;;;;;;;;;21.76;18.07;98804.00;4941323;29;1576;-76
2022/01/12 06:56:58;;;;;;;;;;;;;;;21.66;18.04;98798.47;4907166;29;1915;-76
2022/01/12 06:59:24;;;;;;;;;;;;;;;21.25;18.48;98803.03;4903532;29;994;-76
2022/01/12 07:01:54;;;;;;;;;;;;;;;21.55;18.12;98815.63;4908321;29;1464;-76
2022/01/12 07:04:27;;;;;;;;;;;;;;;21.90;17.73;98807.84;4922533;29;1211;-76
2022/01/12 07:06:53;;;;;;;;;;;;;;;21.98;17.79;98812.19;4924473;29;1104;-75
2022/01/12 07:09:20;;;;;;;;;;;;;;;22.94;16.59;98818.28;4929451;29;1282;-76
2022/01/12 07:12:02;;;;;;;;;;;;;;;22.72;17.05;98812.97;4927427;29;1304;-76
2022/01/12 07:14:31;;;;;;;;;;;;;;;22.44;17.00;98816.34;4925121;29;1389;-76
2022/01/12 07:16:57;;;;;;;;;;;;;;;22.03;17.71;98823.03;4949504;28;1974;-76
2022/01/12 07:19:23;;;;;;;;;;;;;;;22.54;17.00;98829.53;4960430;29;1203;-76
2022/01/12 07:21:49;;;;;;;;;;;;;;;22.52;17.08;98831.97;4962549;28;1176;-76
2022/01/12 07:24:15;;;;;;;;;;;;;;;22.41;17.15;98831.38;4960428;28;938;-76
2022/01/12 07:26:40;;;;;;;;;;;;;;;22.35;17.45;98834.69;4942413;28;1018;-76
2022/01/12 07:29:06;;;;;;;;;;;;;;;22.28;17.56;98829.16;4998835;28;1105;-76
2022/01/12 07:31:32;;;;;;;;;;;;;;;22.31;17.31;98816.94;5007204;28;1193;-76
2022/01/12 07:33:58;;;;;;;;;;;;;;;22.14;17.41;98832.19;5015994;28;1025;-76
2022/01/12 07:36:23;;;;;;;;;;;;;;;22.57;17.30;98829.44;5017934;28;1104;-76
2022/01/12 07:38:53;;;;;;;;;;;;;;;22.59;17.15;98837.53;4998542;28;1983;-76
2022/01/12 07:41:19;;;;;;;;;;;;;;;21.68;17.86;98830.81;5001884;28;973;-76
2022/01/12 07:43:45;;;;;;;;;;;;;;;21.32;18.48;98830.47;5014870;28;970;-76
2022/01/12 07:46:10;;;;;;;;;;;;;;;22.55;17.05;98837.59;5001670;28;967;-76
2022/01/12 07:48:38;;;;;;;;;;;;;;;22.87;16.42;98834.19;4998192;28;978;-76
2022/01/12 07:51:08;;;;;;;;;;;;;;;22.13;17.46;98830.59;5016877;28;1007;-76
2022/01/12 07:53:36;;;;;;;;;;;;;;;21.93;17.82;98841.00;5018135;28;999;-76
2022/01/12 07:56:02;;;;;;;;;;;;;;;22.58;16.92;98838.75;5021573;28;933;-76
2022/01/12 07:58:27;;;;;;;;;;;;;;;23.14;16.14;98833.31;5037265;28;1906;-76
2022/01/12 08:00:52;;;;;;;;;;;;;;;22.53;17.16;98839.25;5024112;28;974;-76
2022/01/12 08:03:22;;;;;;;;;;;;;;;22.31;17.34;98842.44;5021687;28;945;-76
2022/01/12 08:05:47;;;;;;;;;;;;;;;22.51;16.89;98841.72;5023056;28;960;-76
2022/01/12 08:08:15;;;;;;;;;;;;;;;22.28;17.13;98834.81;5034578;28;925;-76
2022/01/12 08:10:40;;;;;;;;;;;;;;;22.26;17.37;98842.94;5006003;28;956;-76
2022/01/12 08:13:06;;;;;;;;;;;;;;;22.30;17.04;98842.88;4998554;28;1005;-76
2022/01/12 08:15:31;;;;;;;;;;;;;;;22.16;17.57;98843.91;4999999;28;978;-76
2022/01/12 08:17:57;;;;;;;;;;;;;;;22.44;16.95;98841.84;4998944;28;1898;-76
2022/01/12 08:20:26;;;;;;;;;;;;;;;22.41;17.30;98837.03;4999515;28;1009;-76
2022/01/12 08:22:52;;;;;;;;;;;;;;;22.98;16.29;98848.19;4999018;28;936;-76
2022/01/12 08:25:17;;;;;;;;;;;;;;;22.81;16.63;98838.75;4998871;28;1012;-76
2022/01/12 08:27:43;;;;;;;;;;;;;;;21.58;17.83;98837.44;4999436;28;872;-76
2022/01/12 08:30:15;;;;;;;;;;;;;;;21.57;17.95;98836.63;4997577;28;969;-76
2022/01/12 08:32:41;;;;;;;;;;;;;;;21.22;18.37;98832.19;5003568;28;915;-76
2022/01/12 08:35:06;;;;;;;;;;;;;;;22.01;17.57;98825.47;5025740;28;927;-76
2022/01/12 08:37:32;;;;;;;;;;;;;;;22.05;17.35;98843.25;5061398;28;1906;-76
2022/01/12 08:39:57;;;;;;;;;;;;;;;21.90;17.42;98831.31;5059822;28;1028;-76
2022/01/12 08:42:22;;;;;;;;;;;;;;;21.87;17.63;98837.03;5061990;28;1222;-76
2022/01/12 08:44:48;;;;;;;;;;;;;;;22.52;16.77;98838.44;5059590;28;928;-76
2022/01/12 08:47:14;;;;;;;;;;;;;;;22.94;16.15;98829.63;5061702;28;999;-76
2022/01/12 08:49:40;;;;;;;;;;;;;;;21.89;17.30;98840.25;5059730;28;1009;-76
2022/01/12 08:52:06;;;;;;;;;;;;;;;21.62;17.45;98821.19;5099265;28;1200;-76
2022/01/12 08:54:32;;;;;;;;;;;;;;;22.06;17.46;98817.28;5097313;28;939;-76
2022/01/12 08:56:57;;;;;;;;;;;;;;;22.14;16.92;98812.38;5081882;28;1997;-76
2022/01/12 08:59:23;;;;;;;;;;;;;;;22.93;16.42;98805.34;5097424;28;968;-76
2022/01/12 09:01:51;;;;;;;;;;;;;;;23.19;16.00;98806.44;5098370;28;957;-76
2022/01/12 09:04:17;;;;;;;;;;;;;;;22.17;17.07;98802.19;5097121;28;1031;-76
2022/01/12 09:06:42;;;;;;;;;;;;;;;22.01;17.34;98814.16;5098598;28;1063;-76
2022/01/12 09:09:10;;;;;;;;;;;;;;;22.72;16.27;98804.47;5096441;28;959;-76
2022/01/12 09:11:36;;;;;;;;;;;;;;;23.19;16.09;98804.41;5098592;28;954;-76
2022/01/12 09:14:02;;;;;;;;;;;;;;;22.50;16.46;98794.75;5096380;28;988;-76
2022/01/12 09:16:27;;;;;;;;;;;;;;;22.07;17.16;98803.91;5099247;28;975;-76
2022/01/12 09:18:53;;;;;;;;;;;;;;;22.57;16.67;98794.63;5075262;28;2583;-76
2022/01/12 09:21:18;;;;;;;;;;;;;;;23.02;16.00;98808.41;5079135;28;890;-76
2022/01/12 09:23:45;;;;;;;;;;;;;;;22.62;16.34;98802.63;5044866;28;1137;-76
2022/01/12 09:26:10;;;;;;;;;;;;;;;22.42;16.77;98810.28;5039749;28;906;-76
2022/01/12 09:28:36;;;;;;;;;;;;;;;21.74;17.05;98808.47;5035993;28;931;-76
2022/01/12 09:31:01;;;;;;;;;;;;;;;22.19;16.73;98814.72;5039746;28;927;-76
2022/01/12 09:33:26;;;;;;;;;;;;;;;21.70;17.26;98788.69;5035753;28;989;-75
2022/01/12 09:35:53;;;;;;;;;;;;;;;22.07;17.04;98795.41;5039046;28;1031;-76
2022/01/12 09:38:19;;;;;;;;;;;;;;;22.14;16.83;98795.34;5036279;28;1891;-76
2022/01/12 09:40:44;;;;;;;;;;;;;;;22.68;16.10;98798.06;5038605;28;1009;-76
2022/01/12 09:43:10;;;;;;;;;;;;;;;23.32;15.46;98801.72;5036344;28;1362;-76
2022/01/12 09:45:38;;;;;;;;;;;;;;;22.17;16.56;98785.19;5053833;28;1120;-76
2022/01/12 09:48:04;;;;;;;;;;;;;;;22.18;16.49;98787.59;5036519;28;980;-76
2022/01/12 09:50:30;;;;;;;;;;;;;;;22.40;16.43;98784.41;5047204;28;938;-76
2022/01/12 09:52:55;;;;;;;;;;;;;;;23.12;15.89;98790.38;5056929;28;1021;-76
2022/01/12 09:55:20;;;;;;;;;;;;;;;22.67;15.95;98785.09;5056513;28;923;-76
2022/01/12 09:57:46;;;;;;;;;;;;;;;22.11;16.58;98779.19;5055879;28;1967;-76
2022/01/12 10:00:12;;;;;;;;;;;;;;;22.20;16.46;98784.31;5056320;28;969;-77
2022/01/12 10:02:40;;;;;;;;;;;;;;;22.40;16.43;98779.53;5057164;28;976;-76
2022/01/12 10:05:06;;;;;;;;;;;;;;;22.61;16.03;98772.66;5016134;28;949;-76
2022/01/12 10:07:32;;;;;;;;;;;;;;;22.64;16.22;98783.16;4998096;28;1225;-76
2022/01/12 10:10:04;;;;;;;;;;;;;;;22.23;16.61;98781.44;4996563;28;984;-76
2022/01/12 10:12:30;;;;;;;;;;;;;;;22.38;16.30;98781.19;4997859;28;967;-76
2022/01/12 10:14:59;;;;;;;;;;;;;;;22.42;16.53;98790.44;5007803;28;1693;-76
2022/01/12 10:17:31;;;;;;;;;;;;;;;22.63;16.20;98792.88;4978312;28;1910;-76
2022/01/12 10:20:10;;;;;;;;;;;;;;;22.49;16.22;98790.31;4977039;28;968;-76
2022/01/12 10:22:36;;;;;;;;;;;;;;;22.81;15.67;98793.38;4958844;29;1051;-76
2022/01/12 10:25:12;;;;;;;;;;;;;;;23.25;15.09;98799.81;4941448;29;1019;-76
2022/01/12 10:27:40;;;;;;;;;;;;;;;22.49;15.86;98781.81;4959254;29;958;-75
2022/01/12 10:30:06;;;;;;;;;;;;;;;22.30;16.29;98777.69;4958005;28;980;-76
2022/01/12 10:32:31;;;;;;;;;;;;;;;21.93;16.46;98784.34;4927554;29;968;-76
2022/01/12 10:34:59;;;;;;;;;;;;;;;22.24;16.17;98800.06;4958091;28;990;-76
2022/01/12 10:37:27;;;;;;;;;;;;;;;22.26;16.19;98794.75;4978985;28;1906;-76
2022/01/12 10:39:53;;;;;;;;;;;;;;;22.18;16.16;98796.09;4985344;28;970;-76
2022/01/12 10:42:19;;;;;;;;;;;;;;;22.47;15.97;98796.41;4997595;28;1242;-77
2022/01/12 10:44:46;;;;;;;;;;;;;;;22.33;16.46;98797.47;5012156;28;965;-76
2022/01/12 10:47:13;;;;;;;;;;;;;;;22.38;15.97;98796.16;5037175;28;1015;-76
2022/01/12 10:49:40;;;;;;;;;;;;;;;22.23;16.30;98787.13;5055958;28;1655;-76
2022/01/12 10:52:12;;;;;;;;;;;;;;;22.22;16.50;98796.81;5041598;28;944;-76
2022/01/12 10:54:41;;;;;;;;;;;;;;;22.24;16.43;98800.06;5074046;28;987;-76
2022/01/12 10:57:13;;;;;;;;;;;;;;;22.44;15.93;98807.84;5057408;28;1906;-77
2022/01/12 10:59:39;;;;;;;;;;;;;;;22.35;16.04;98806.34;5055466;28;1118;-76
2022/01/12 11:02:04;;;;;;;;;;;;;;;22.39;16.05;98794.94;5057451;28;1015;-77
2022/01/12 11:04:30;;;;;;;;;;;;;;;22.31;16.47;98799.91;5055909;28;1008;-77
2022/01/12 11:06:55;;;;;;;;;;;;;;;22.00;16.86;98789.88;5041234;28;956;-76
2022/01/12 11:09:20;;;;;;;;;;;;;;;22.27;16.17;98807.69;5059075;28;1026;-76
2022/01/12 11:11:46;;;;;;;;;;;;;;;22.26;16.46;98808.91;5061198;28;1010;-76
2022/01/12 11:14:11;;;;;;;;;;;;;;;22.42;16.42;98798.94;5059218;28;975;-76
2022/01/12 11:16:37;;;;;;;;;;;;;;;22.66;15.91;98786.34;5060294;28;1906;-76
2022/01/12 11:19:02;;;;;;;;;;;;;;;23.12;15.51;98807.41;5058013;28;1024;-77
2022/01/12 11:21:36;;;;;;;;;;;;;;;22.38;16.04;98809.53;5078102;28;1072;-76
2022/01/12 11:24:04;;;;;;;;;;;;;;;21.68;16.98;98816.66;5061489;28;1018;-77
2022/01/12 11:26:30;;;;;;;;;;;;;;;21.90;16.51;98819.19;5065235;28;954;-77
2022/01/12 11:28:56;;;;;;;;;;;;;;;22.16;16.11;98818.38;5061158;28;953;-77
2022/01/12 11:31:31;;;;;;;;;;;;;;;22.26;16.33;98814.59;5061273;28;1033;-76
2022/01/12 11:33:56;;;;;;;;;;;;;;;21.53;16.93;98827.38;5058409;28;1182;-76
2022/01/12 11:36:27;;;;;;;;;;;;;;;21.76;16.85;98835.16;5041401;28;994;-76
2022/01/12 11:39:12;;;;;;;;;;;;;;;22.25;16.26;98830.00;5037646;28;1967;-76
2022/01/12 11:41:38;;;;;;;;;;;;;;;21.64;16.68;98844.22;5040507;28;1282;-77
2022/01/12 11:44:05;;;;;;;;;;;;;;;21.51;16.89;98851.69;5038314;28;1000;-76
2022/01/12 11:46:42;;;;;;;;;;;;;;;21.96;16.34;98857.13;5040692;28;1021;-77
2022/01/12 11:49:07;;;;;;;;;;;;;;;21.44;16.95;98848.94;5042856;28;1023;-76
2022/01/12 11:51:33;;;;;;;;;;;;;;;22.02;16.63;98849.75;5060288;28;953;-77
2022/01/12 11:54:00;;;;;;;;;;;;;;;21.99;16.60;98861.97;5057630;28;1022;-77
2022/01/12 11:56:26;;;;;;;;;;;;;;;21.97;16.69;98862.41;5043930;28;945;-76
2022/01/12 11:58:52;;;;;;;;;;;;;;;21.53;17.14;98871.88;5057433;28;1914;-77
2022/01/12 12:01:17;;;;;;;;;;;;;;;21.63;16.74;98862.44;5020939;28;1840;-76
2022/01/12 12:03:54;;;;;;;;;;;;;;;21.37;17.13;98871.69;5017687;28;1034;-77
2022/01/12 12:06:20;;;;;;;;;;;;;;;21.81;16.83;98874.34;5005781;28;1136;-77
2022/01/12 12:09:00;;;;;;;;;;;;;;;21.84;16.54;98879.16;5036441;28;948;-76
2022/01/12 12:11:27;;;;;;;;;;;;;;;21.68;16.87;98878.97;4981167;28;1068;-77
2022/01/12 12:13:53;;;;;;;;;;;;;;;21.73;16.82;98872.84;4978341;28;976;-76
2022/01/12 12:16:19;;;;;;;;;;;;;;;22.09;16.56;98895.00;4981212;28;1022;-76
2022/01/12 12:18:44;;;;;;;;;;;;;;;21.65;16.88;98882.63;4994012;28;1918;-76
2022/01/12 12:21:10;;;;;;;;;;;;;;;21.76;16.99;98883.31;4997142;28;953;-76
2022/01/12 12:23:36;;;;;;;;;;;;;;;21.64;17.02;98881.03;5014833;28;965;-76
2022/01/12 12:26:05;;;;;;;;;;;;;;;21.73;16.72;98884.16;5004408;28;936;-76
2022/01/12 12:28:30;;;;;;;;;;;;;;;21.78;16.76;98895.03;5016616;28;924;-76
2022/01/12 12:30:56;;;;;;;;;;;;;;;22.23;16.50;98883.50;5020062;28;948;-77
2022/01/12 12:33:23;;;;;;;;;;;;;;;21.43;17.22;98886.97;5054909;28;983;-76
2022/01/12 12:35:49;;;;;;;;;;;;;;;21.74;16.90;98884.97;5035800;28;994;-76
2022/01/12 12:38:15;;;;;;;;;;;;;;;21.73;16.92;98884.16;5017188;28;1906;-77
2022/01/12 12:40:45;;;;;;;;;;;;;;;21.73;16.76;98895.50;5035902;28;1337;-77
2022/01/12 12:43:22;;;;;;;;;;;;;;;21.50;16.75;98903.88;5049989;28;1062;-76
2022/01/12 12:45:49;;;;;;;;;;;;;;;21.85;16.81;98903.41;5058951;28;1167;-77
2022/01/12 12:48:15;;;;;;;;;;;;;;;21.83;16.51;98911.56;5057172;28;1014;-77
2022/01/12 12:50:40;;;;;;;;;;;;;;;21.61;16.92;98927.22;5058274;28;1006;-76
2022/01/12 12:53:06;;;;;;;;;;;;;;;21.99;16.65;98924.31;5036584;28;1154;-75
2022/01/12 12:55:35;;;;;;;;;;;;;;;21.92;16.58;98930.88;5038437;28;1048;-76
2022/01/12 12:58:01;;;;;;;;;;;;;;;21.79;16.71;98943.97;5021033;28;1977;-76
2022/01/12 13:00:26;;;;;;;;;;;;;;;21.66;16.75;98943.75;5038477;28;1064;-76
2022/01/12 13:02:53;;;;;;;;;;;;;;;21.47;16.88;98936.66;5037803;28;972;-77
2022/01/12 13:05:19;;;;;;;;;;;;;;;21.95;16.53;98934.88;5037488;28;1044;-77
2022/01/12 13:07:46;;;;;;;;;;;;;;;22.00;16.57;98934.41;5055437;28;1022;-76
2022/01/12 13:10:15;;;;;;;;;;;;;;;22.04;16.51;98938.78;5057355;28;935;-77
2022/01/12 13:12:42;;;;;;;;;;;;;;;21.92;16.68;98941.41;5057494;28;915;-77
2022/01/12 13:15:16;;;;;;;;;;;;;;;21.95;16.61;98941.34;5036746;28;1046;-76
2022/01/12 13:17:41;;;;;;;;;;;;;;;22.18;16.31;98949.19;5037629;28;1894;-76
2022/01/12 13:22:38;;;;;;;;;;;;;;;21.61;16.83;98943.41;5037358;28;941;-76
2022/01/12 13:25:10;;;;;;;;;;;;;;;21.50;17.29;98952.00;5072106;28;1093;-77
2022/01/12 13:27:36;;;;;;;;;;;;;;;21.42;16.86;98942.00;5077239;28;975;-77
2022/01/12 13:30:02;;;;;;;;;;;;;;;21.66;17.00;98945.75;5056149;28;947;-76
2022/01/12 13:32:28;;;;;;;;;;;;;;;22.18;16.50;98954.84;5039061;28;1042;-77
2022/01/12 13:34:56;;;;;;;;;;;;;;;22.23;16.49;98954.38;5036424;28;982;-76
2022/01/12 13:37:22;;;;;;;;;;;;;;;22.22;16.47;98961.25;5054717;28;1878;-77
2022/01/12 13:39:48;;;;;;;;;;;;;;;21.61;16.90;98966.88;5036328;28;953;-76
2022/01/12 13:42:13;;;;;;;;;;;;;;;21.94;16.73;98962.41;5040688;28;1044;-76
2022/01/12 13:44:39;;;;;;;;;;;;;;;21.97;16.84;98966.44;5036242;28;944;-77
2022/01/12 13:47:10;;;;;;;;;;;;;;;21.72;16.91;98961.88;5091353;28;975;-77
2022/01/12 13:49:36;;;;;;;;;;;;;;;21.73;16.76;98968.34;5076296;28;966;-77
2022/01/12 13:52:01;;;;;;;;;;;;;;;21.49;17.04;98968.19;5078241;28;956;-77
2022/01/12 13:54:48;;;;;;;;;;;;;;;21.47;17.23;98967.81;5075719;28;1018;-76
2022/01/12 13:57:14;;;;;;;;;;;;;;;21.96;16.55;98984.66;5078197;28;1983;-76
2022/01/12 13:59:43;;;;;;;;;;;;;;;22.02;16.50;98983.78;5035890;28;1016;-77
2022/01/12 14:02:12;;;;;;;;;;;;;;;21.38;17.10;98986.53;5038048;28;984;-76
2022/01/12 14:04:42;;;;;;;;;;;;;;;22.01;16.55;98995.50;5036062;28;1157;-77
2022/01/12 14:07:10;;;;;;;;;;;;;;;21.94;16.76;99002.09;5045431;28;1320;-77
2022/01/12 14:09:39;;;;;;;;;;;;;;;21.10;17.13;99010.22;5055717;28;957;-76
2022/01/12 14:12:07;;;;;;;;;;;;;;;21.12;17.37;99008.56;5074150;28;952;-76
2022/01/12 14:14:43;;;;;;;;;;;;;;;21.62;16.86;99008.13;5055667;28;1144;-76
2022/01/12 14:17:08;;;;;;;;;;;;;;;21.14;17.16;99017.47;5057720;28;1891;-77
2022/01/12 14:19:34;;;;;;;;;;;;;;;21.09;17.79;99009.41;5072410;28;927;-76
2022/01/12 14:22:00;;;;;;;;;;;;;;;21.71;17.10;99010.44;5074111;28;968;-77
2022/01/12 14:24:25;;;;;;;;;;;;;;;21.36;17.22;99003.13;5072264;28;936;-76
2022/01/12 14:26:50;;;;;;;;;;;;;;;21.08;17.61;99004.94;5057530;28;1147;-76
2022/01/12 14:29:16;;;;;;;;;;;;;;;21.02;17.39;99009.47;5072395;28;1326;-77
2022/01/12 14:31:43;;;;;;;;;;;;;;;20.97;17.70;99007.06;5077974;28;935;-76
2022/01/12 14:34:08;;;;;;;;;;;;;;;21.72;16.85;99001.53;5077913;28;981;-76
2022/01/12 14:36:34;;;;;;;;;;;;;;;20.72;17.81;99005.22;5079890;28;989;-76
2022/01/12 14:38:59;;;;;;;;;;;;;;;20.95;17.53;99009.53;5091476;28;1909;-76
2022/01/12 14:41:28;;;;;;;;;;;;;;;21.21;17.67;99008.91;5118466;28;1123;-76
2022/01/12 14:43:53;;;;;;;;;;;;;;;21.33;17.39;99005.56;5118178;28;1008;-77
2022/01/12 14:46:19;;;;;;;;;;;;;;;21.41;17.30;99019.66;5122209;28;1033;-77
2022/01/12 14:48:44;;;;;;;;;;;;;;;21.67;16.97;99016.16;5098513;28;1030;-77
2022/01/12 14:51:10;;;;;;;;;;;;;;;21.63;17.33;99021.06;5061365;28;1029;-76
2022/01/12 14:53:35;;;;;;;;;;;;;;;20.95;17.74;99026.50;5058263;28;961;-77
2022/01/12 14:56:01;;;;;;;;;;;;;;;21.13;17.64;99021.47;5044627;28;1033;-76
2022/01/12 14:58:27;;;;;;;;;;;;;;;20.97;17.93;99024.06;5057899;28;1901;-77